Time;durP1;ratioP1;P1;durP2;ratioP2;P2;SDS_P1;SDS_P2;PMS_P1;PMS_P2;Temp;Humidity;BMP_temperature;BMP_pressure;BME280_temperature;BME280_humidity;BME280_pressure;Samples;Min_cycle;Max_cycle;Signal;HPM_P1;HPM_P2
2023/08/04 00:01:51;;;;;;;11.02;4.22;;;24.80;97.60;;;;;;4972304;28;20022;-80
2023/08/04 00:04:17;;;;;;;13.23;4.90;;;24.80;97.90;;;;;;4972387;28;20019;-80
2023/08/04 00:06:42;;;;;;;11.95;5.00;;;24.80;97.70;;;;;;4972184;28;20172;-80
2023/08/04 00:09:08;;;;;;;10.98;4.95;;;24.80;97.60;;;;;;4972347;28;20031;-81
2023/08/04 00:11:34;;;;;;;10.27;4.75;;;24.80;97.60;;;;;;4971841;28;20387;-80
2023/08/04 00:14:00;;;;;;;9.80;4.50;;;24.80;97.60;;;;;;4971980;28;20035;-80
2023/08/04 00:16:26;;;;;;;12.45;4.75;;;24.80;97.60;;;;;;4971992;28;20050;-80
2023/08/04 00:18:52;;;;;;;13.98;4.82;;;24.80;97.50;;;;;;4971831;28;20493;-81
2023/08/04 00:21:18;;;;;;;13.77;4.43;;;24.80;97.60;;;;;;4972065;28;20112;-80
2023/08/04 00:23:43;;;;;;;9.85;4.20;;;24.80;97.60;;;;;;4971985;28;20031;-80
2023/08/04 00:26:09;;;;;;;12.20;5.43;;;24.80;97.70;;;;;;4971908;28;20576;-80
2023/08/04 00:28:35;;;;;;;15.48;5.65;;;24.80;97.80;;;;;;4972064;28;20031;-79
2023/08/04 00:31:01;;;;;;;12.90;5.70;;;24.80;97.90;;;;;;4972090;28;20050;-80
2023/08/04 00:33:26;;;;;;;11.65;5.22;;;24.80;98.00;;;;;;4971871;28;20049;-80
2023/08/04 00:35:52;;;;;;;13.50;5.00;;;24.70;98.00;;;;;;4970519;28;20058;-80
2023/08/04 00:38:18;;;;;;;14.05;5.07;;;24.80;98.10;;;;;;4971930;28;20057;-80
2023/08/04 00:40:44;;;;;;;14.13;5.57;;;24.80;98.00;;;;;;4971859;28;20074;-80
2023/08/04 00:43:09;;;;;;;11.43;5.15;;;24.80;98.10;;;;;;4971546;28;20074;-80
2023/08/04 00:45:35;;;;;;;15.00;5.10;;;24.80;98.10;;;;;;4971556;28;20034;-81
2023/08/04 00:48:02;;;;;;;13.07;5.30;;;24.80;98.20;;;;;;4971370;28;20084;-80
2023/08/04 00:50:29;;;;;;;14.30;5.25;;;24.80;98.30;;;;;;4970690;28;20054;-80
2023/08/04 00:52:56;;;;;;;12.90;5.15;;;24.80;98.50;;;;;;4971378;28;20034;-80
2023/08/04 00:55:22;;;;;;;15.48;5.70;;;24.80;98.50;;;;;;4971527;28;20038;-81
2023/08/04 00:57:48;;;;;;;16.48;5.82;;;24.80;98.50;;;;;;4970419;28;20062;-80
2023/08/04 01:00:14;;;;;;;13.07;5.28;;;24.80;98.60;;;;;;4968934;28;20042;-80
2023/08/04 01:02:40;;;;;;;14.65;5.65;;;24.80;98.60;;;;;;4968785;28;20471;-80
2023/08/04 01:05:06;;;;;;;11.98;5.53;;;24.80;98.60;;;;;;4970095;28;20022;-81
2023/08/04 01:08:09;;;;;;;16.50;5.15;;;24.80;98.60;;;;;;4971158;28;20100;-79
2023/08/04 01:10:55;;;;;;;11.70;4.93;;;24.80;98.50;;;;;;4966337;28;20050;-80
2023/08/04 01:13:22;;;;;;;18.10;6.15;;;24.80;98.50;;;;;;4970874;28;20035;-79
2023/08/04 01:15:49;;;;;;;15.18;5.32;;;24.80;98.60;;;;;;4971092;28;20030;-80
2023/08/04 01:18:24;;;;;;;13.95;5.05;;;24.80;98.60;;;;;;4971034;28;20038;-80
2023/08/04 01:20:50;;;;;;;15.07;5.85;;;24.80;98.60;;;;;;4969414;28;20031;-80
2023/08/04 01:23:16;;;;;;;14.70;5.13;;;24.80;98.70;;;;;;4970817;28;20030;-81
2023/08/04 01:25:43;;;;;;;15.93;5.38;;;24.80;98.70;;;;;;4970800;28;20031;-80
2023/08/04 01:28:15;;;;;;;13.10;5.45;;;24.80;98.80;;;;;;4970512;28;20030;-81
2023/08/04 01:30:43;;;;;;;15.18;5.30;;;24.80;98.80;;;;;;4970893;28;20054;-81
2023/08/04 01:33:09;;;;;;;16.88;5.57;;;24.80;98.80;;;;;;4970704;28;20505;-81
2023/08/04 01:35:35;;;;;;;13.60;5.50;;;24.80;98.80;;;;;;4970318;28;20031;-80
2023/08/04 01:38:01;;;;;;;13.32;4.97;;;24.80;98.90;;;;;;4969394;28;20126;-81
2023/08/04 01:40:27;;;;;;;15.40;5.13;;;24.80;98.90;;;;;;4970646;28;20031;-80
2023/08/04 01:42:52;;;;;;;8.25;5.00;;;24.80;99.00;;;;;;4970342;28;20072;-80
2023/08/04 01:45:18;;;;;;;16.10;5.22;;;24.90;99.00;;;;;;4970953;28;20027;-80
2023/08/04 01:47:45;;;;;;;11.68;5.70;;;24.80;99.00;;;;;;4970920;28;20076;-81
2023/08/04 01:50:11;;;;;;;14.45;5.57;;;24.80;99.00;;;;;;4970867;28;20062;-80
2023/08/04 01:52:37;;;;;;;16.65;5.43;;;24.80;99.00;;;;;;4970595;28;20486;-80
2023/08/04 01:55:03;;;;;;;13.40;5.15;;;24.90;99.00;;;;;;4970606;28;20129;-79
2023/08/04 01:57:29;;;;;;;14.57;5.47;;;24.80;99.00;;;;;;4970502;28;20023;-79
2023/08/04 01:59:54;;;;;;;10.68;4.95;;;24.90;99.10;;;;;;4970621;28;20039;-80
2023/08/04 02:02:20;;;;;;;10.90;5.20;;;24.80;99.10;;;;;;4972247;28;20129;-81
2023/08/04 02:04:46;;;;;;;14.07;4.93;;;24.90;99.10;;;;;;4973970;28;20041;-81
2023/08/04 02:07:12;;;;;;;13.00;6.35;;;24.90;99.20;;;;;;4973893;28;20022;-81
2023/08/04 02:09:37;;;;;;;13.68;5.35;;;24.90;99.20;;;;;;4973715;28;20071;-80
2023/08/04 02:12:03;;;;;;;13.80;5.18;;;24.80;99.30;;;;;;4973999;28;20019;-81
2023/08/04 02:14:29;;;;;;;13.20;5.28;;;24.80;99.30;;;;;;4973601;28;20043;-80
2023/08/04 02:16:56;;;;;;;20.50;5.82;;;24.80;99.30;;;;;;4973794;28;20045;-80
2023/08/04 02:19:22;;;;;;;13.90;5.82;;;24.80;99.40;;;;;;4973913;28;20486;-81
2023/08/04 02:21:51;;;;;;;16.75;6.22;;;24.90;99.50;;;;;;4973513;28;20478;-81
2023/08/04 02:24:17;;;;;;;14.57;5.85;;;24.90;99.50;;;;;;4973447;28;20391;-81
2023/08/04 02:26:46;;;;;;;16.33;5.38;;;24.90;99.50;;;;;;4973734;28;20076;-80
2023/08/04 02:29:12;;;;;;;16.10;5.72;;;24.90;99.50;;;;;;4973615;28;20112;-80
2023/08/04 02:31:39;;;;;;;14.75;4.78;;;24.90;99.50;;;;;;4973683;28;20034;-81
2023/08/04 02:34:04;;;;;;;17.15;5.53;;;24.90;99.50;;;;;;4973868;28;20077;-80
2023/08/04 02:36:30;;;;;;;14.55;5.18;;;24.90;99.50;;;;;;4973946;28;20055;-81
2023/08/04 02:38:56;;;;;;;14.63;5.40;;;24.90;99.50;;;;;;4973695;28;20019;-80
2023/08/04 02:41:22;;;;;;;19.33;6.40;;;24.90;99.60;;;;;;4973770;28;20073;-81
2023/08/04 02:43:47;;;;;;;17.80;5.25;;;24.90;99.60;;;;;;4973509;28;20041;-78
2023/08/04 02:46:13;;;;;;;15.05;5.97;;;24.90;99.60;;;;;;4973425;28;20080;-80
2023/08/04 02:48:40;;;;;;;13.30;5.93;;;24.90;99.60;;;;;;4973643;28;20033;-80
2023/08/04 02:51:08;;;;;;;13.80;5.97;;;24.90;99.70;;;;;;4973086;28;20065;-80
2023/08/04 02:53:35;;;;;;;15.25;5.70;;;24.90;99.80;;;;;;4973226;28;20069;-80
2023/08/04 02:56:11;;;;;;;13.98;5.90;;;24.90;99.80;;;;;;4973666;28;20023;-80
2023/08/04 02:58:37;;;;;;;16.63;6.00;;;24.90;99.80;;;;;;4973367;28;20424;-80
2023/08/04 03:01:03;;;;;;;15.65;6.25;;;24.90;99.80;;;;;;4973227;28;20417;-80
2023/08/04 03:03:30;;;;;;;13.98;5.95;;;24.90;99.90;;;;;;4973314;28;20034;-80
2023/08/04 03:06:00;;;;;;;12.73;5.57;;;24.90;99.90;;;;;;4972841;28;20048;-80
2023/08/04 03:08:26;;;;;;;16.40;5.60;;;24.90;99.90;;;;;;4973211;28;20038;-78
2023/08/04 03:10:52;;;;;;;20.60;6.40;;;24.90;99.90;;;;;;4973043;28;20015;-80
2023/08/04 03:13:18;;;;;;;18.92;6.07;;;24.90;99.90;;;;;;4972430;28;20034;-80
2023/08/04 03:15:43;;;;;;;23.85;6.78;;;24.90;99.90;;;;;;4973109;28;20390;-76
2023/08/04 03:18:09;;;;;;;17.92;6.45;;;25.00;99.90;;;;;;4973182;28;20104;-81
2023/08/04 03:20:40;;;;;;;14.73;6.20;;;25.00;99.90;;;;;;4973046;28;20030;-81
2023/08/04 03:23:06;;;;;;;26.52;6.55;;;25.00;99.90;;;;;;4973158;28;20027;-80
2023/08/04 03:25:33;;;;;;;18.60;5.82;;;25.00;99.90;;;;;;4972924;28;20055;-81
2023/08/04 03:27:59;;;;;;;22.52;6.13;;;25.00;99.90;;;;;;4972750;28;20030;-81
2023/08/04 03:30:25;;;;;;;17.23;6.20;;;25.00;99.90;;;;;;4972833;28;20023;-80
2023/08/04 03:32:51;;;;;;;20.92;7.40;;;25.00;99.90;;;;;;4972550;28;20033;-80
2023/08/04 03:35:16;;;;;;;19.67;6.25;;;25.00;99.90;;;;;;4972523;28;20386;-79
2023/08/04 03:37:42;;;;;;;20.42;6.15;;;25.00;99.90;;;;;;4972568;28;20023;-79
2023/08/04 03:40:09;;;;;;;23.38;7.82;;;25.00;99.90;;;;;;4972726;28;20030;-80
2023/08/04 03:42:38;;;;;;;19.05;6.28;;;25.10;99.90;;;;;;4972896;28;20510;-80
2023/08/04 03:45:07;;;;;;;17.63;6.10;;;25.10;99.80;;;;;;4971560;28;20106;-80
2023/08/04 03:47:36;;;;;;;18.80;5.55;;;25.00;99.70;;;;;;4972203;28;20035;-79
2023/08/04 03:50:04;;;;;;;20.10;7.10;;;25.00;99.70;;;;;;4972319;28;20019;-80
2023/08/04 03:52:29;;;;;;;17.02;6.10;;;25.00;99.70;;;;;;4972403;28;20101;-79
2023/08/04 03:54:55;;;;;;;10.05;5.60;;;25.00;99.80;;;;;;4972343;28;20043;-80
2023/08/04 03:57:21;;;;;;;18.80;6.35;;;25.00;99.90;;;;;;4972338;28;20072;-80
2023/08/04 03:59:48;;;;;;;18.98;6.53;;;25.00;99.90;;;;;;4971274;28;20031;-80
2023/08/04 04:02:14;;;;;;;19.27;6.13;;;25.00;99.90;;;;;;4972415;28;20088;-80
2023/08/04 04:04:39;;;;;;;16.90;6.57;;;25.00;99.90;;;;;;4972217;28;20474;-81
2023/08/04 04:07:05;;;;;;;21.83;6.70;;;25.00;99.90;;;;;;4972371;28;20501;-79
2023/08/04 04:09:31;;;;;;;12.32;5.72;;;25.00;99.90;;;;;;4972022;28;20023;-80
2023/08/04 04:11:57;;;;;;;17.20;6.45;;;24.90;99.90;;;;;;4971230;28;20130;-80
2023/08/04 04:14:23;;;;;;;16.35;5.60;;;25.00;99.90;;;;;;4972031;28;20050;-80
2023/08/04 04:16:48;;;;;;;16.08;6.20;;;24.90;99.90;;;;;;4971932;28;20098;-80
2023/08/04 04:19:14;;;;;;;13.70;5.93;;;24.90;99.90;;;;;;4971893;28;20062;-80
2023/08/04 04:21:40;;;;;;;18.30;6.07;;;24.90;99.90;;;;;;4971795;28;20027;-80
2023/08/04 04:24:05;;;;;;;19.50;6.20;;;24.90;99.90;;;;;;4971460;28;20062;-80
2023/08/04 04:26:31;;;;;;;16.33;7.10;;;24.90;99.90;;;;;;4971821;28;20031;-80
2023/08/04 04:28:57;;;;;;;20.38;6.30;;;25.00;99.90;;;;;;4972158;28;20058;-80
2023/08/04 04:31:23;;;;;;;18.88;6.57;;;24.90;99.90;;;;;;4971744;28;20054;-80
2023/08/04 04:33:48;;;;;;;25.38;6.60;;;25.00;99.90;;;;;;4956967;28;20039;-80
2023/08/04 04:36:14;;;;;;;18.10;6.10;;;24.90;99.90;;;;;;4951422;28;20030;-80
2023/08/04 04:38:40;;;;;;;23.83;6.60;;;25.00;99.90;;;;;;4952501;28;20391;-80
2023/08/04 04:41:06;;;;;;;13.35;6.28;;;25.00;99.90;;;;;;4952247;28;20012;-80
2023/08/04 04:43:32;;;;;;;17.27;6.40;;;25.00;99.90;;;;;;4952204;28;20047;-80
2023/08/04 04:45:59;;;;;;;18.33;6.22;;;25.00;99.90;;;;;;4952149;28;20094;-80
2023/08/04 04:48:25;;;;;;;18.17;6.60;;;25.00;99.90;;;;;;4951981;28;20376;-80
2023/08/04 04:50:51;;;;;;;17.95;6.43;;;25.00;99.90;;;;;;4952376;28;20027;-81
2023/08/04 04:53:17;;;;;;;19.45;6.85;;;25.00;99.90;;;;;;4952421;28;20054;-80
2023/08/04 04:55:43;;;;;;;12.98;5.68;;;24.90;99.90;;;;;;4952336;28;20153;-80
2023/08/04 04:58:09;;;;;;;16.35;6.15;;;24.90;99.90;;;;;;4952444;28;20114;-80
2023/08/04 05:00:35;;;;;;;11.82;5.78;;;25.00;99.90;;;;;;4952062;28;20059;-80
2023/08/04 05:03:06;;;;;;;16.20;5.28;;;25.00;99.90;;;;;;4966688;28;20433;-79
2023/08/04 05:05:32;;;;;;;15.98;6.20;;;24.90;99.90;;;;;;4971557;28;20022;-80
2023/08/04 05:07:58;;;;;;;12.48;5.60;;;25.00;99.90;;;;;;4971380;28;20031;-78
2023/08/04 05:10:25;;;;;;;21.15;6.30;;;24.90;99.90;;;;;;4971213;28;20035;-80
2023/08/04 05:12:51;;;;;;;19.25;6.07;;;25.00;99.90;;;;;;4971526;28;20489;-79
2023/08/04 05:15:17;;;;;;;14.82;6.13;;;25.00;99.90;;;;;;4971470;28;20035;-80
2023/08/04 05:17:42;;;;;;;14.35;5.45;;;25.00;99.90;;;;;;4971338;28;20048;-78
2023/08/04 05:20:09;;;;;;;23.55;7.28;;;25.00;99.90;;;;;;4971101;28;20058;-81
2023/08/04 05:22:34;;;;;;;17.83;6.03;;;25.10;99.90;;;;;;4970711;28;20027;-81
2023/08/04 05:25:01;;;;;;;14.57;6.35;;;25.10;99.90;;;;;;4971162;28;20046;-80
2023/08/04 05:27:26;;;;;;;22.55;5.72;;;25.10;99.90;;;;;;4969923;28;20081;-79
2023/08/04 05:29:52;;;;;;;16.02;5.28;;;25.10;99.70;;;;;;4971213;28;20034;-80
2023/08/04 05:32:18;;;;;;;17.10;6.55;;;25.10;99.70;;;;;;4970996;28;20038;-80
2023/08/04 05:34:44;;;;;;;18.08;5.63;;;25.20;99.60;;;;;;4971042;28;20041;-80
2023/08/04 05:37:09;;;;;;;15.05;6.13;;;25.20;99.50;;;;;;4973661;28;20059;-76
2023/08/04 05:39:35;;;;;;;16.67;6.15;;;25.20;99.40;;;;;;4974570;28;20027;-77
2023/08/04 05:42:01;;;;;;;16.48;5.75;;;25.20;99.30;;;;;;4974377;28;20074;-77
2023/08/04 05:44:28;;;;;;;19.95;6.30;;;25.20;99.10;;;;;;4974549;28;20038;-75
2023/08/04 05:46:54;;;;;;;16.60;5.60;;;25.30;99.10;;;;;;4974460;28;20062;-78
2023/08/04 05:49:20;;;;;;;11.43;5.45;;;25.20;99.10;;;;;;4974602;28;20026;-75
2023/08/04 05:51:46;;;;;;;14.15;5.25;;;25.20;99.00;;;;;;4971100;28;20387;-75
2023/08/04 05:54:12;;;;;;;15.40;5.60;;;25.20;99.10;;;;;;4967814;28;20043;-77
2023/08/04 05:56:38;;;;;;;20.52;6.50;;;25.20;99.00;;;;;;4970878;28;20027;-75
2023/08/04 05:59:03;;;;;;;13.50;5.05;;;25.20;99.00;;;;;;4973541;28;20035;-76
2023/08/04 06:01:29;;;;;;;14.65;5.53;;;25.20;99.00;;;;;;4973952;28;20080;-79
2023/08/04 06:03:55;;;;;;;13.60;6.05;;;25.20;99.00;;;;;;4973989;28;20034;-76
2023/08/04 06:06:21;;;;;;;12.15;5.28;;;25.20;99.00;;;;;;4967513;28;20023;-75
2023/08/04 06:08:47;;;;;;;18.77;5.88;;;25.20;99.00;;;;;;4954820;28;20511;-77
2023/08/04 06:11:14;;;;;;;13.30;5.13;;;25.20;98.90;;;;;;4954055;28;20165;-77
2023/08/04 06:13:40;;;;;;;13.65;5.15;;;25.20;98.90;;;;;;4954436;28;20504;-80
2023/08/04 06:16:06;;;;;;;14.90;5.40;;;25.30;98.90;;;;;;4954593;28;20023;-79
2023/08/04 06:18:32;;;;;;;13.48;5.45;;;25.30;98.80;;;;;;4954565;28;20106;-80
2023/08/04 06:20:58;;;;;;;14.15;5.13;;;25.30;98.70;;;;;;4953775;28;20157;-80
2023/08/04 06:23:24;;;;;;;16.38;5.97;;;25.30;98.60;;;;;;4954102;28;20020;-80
2023/08/04 06:25:50;;;;;;;10.20;5.03;;;25.30;98.50;;;;;;4954170;28;20038;-79
2023/08/04 06:28:18;;;;;;;13.48;5.40;;;25.40;98.50;;;;;;4955031;28;20027;-81
2023/08/04 06:30:45;;;;;;;17.70;5.90;;;25.40;98.60;;;;;;4954256;28;20424;-80
2023/08/04 06:33:11;;;;;;;14.65;5.25;;;25.40;98.40;;;;;;4954087;28;20368;-79
2023/08/04 06:35:41;;;;;;;13.77;5.90;;;25.40;98.40;;;;;;4954211;28;20042;-80
2023/08/04 06:38:10;;;;;;;14.32;5.47;;;25.40;98.50;;;;;;4954086;29;20426;-78
2023/08/04 06:40:37;;;;;;;17.83;5.70;;;25.40;98.60;;;;;;4954189;28;20039;-80
2023/08/04 06:43:03;;;;;;;17.98;5.82;;;25.40;98.60;;;;;;4953969;28;20122;-78
2023/08/04 06:45:29;;;;;;;18.00;5.07;;;25.40;98.80;;;;;;4954320;28;20449;-80
2023/08/04 06:47:55;;;;;;;12.70;4.95;;;25.40;98.50;;;;;;4953245;28;20023;-80
2023/08/04 06:50:21;;;;;;;11.27;4.78;;;25.50;98.20;;;;;;4953864;28;20034;-79
2023/08/04 06:52:49;;;;;;;9.13;3.70;;;25.50;97.60;;;;;;4954047;28;20020;-78
2023/08/04 06:55:15;;;;;;;7.28;2.70;;;25.40;97.20;;;;;;4953927;28;20556;-80
2023/08/04 06:57:41;;;;;;;5.60;3.20;;;25.40;96.60;;;;;;4954080;28;20024;-79
2023/08/04 07:00:09;;;;;;;7.68;3.20;;;25.30;96.20;;;;;;4953759;28;20111;-80
2023/08/04 07:02:35;;;;;;;7.85;2.85;;;25.30;95.90;;;;;;4953676;28;20027;-79
2023/08/04 07:05:01;;;;;;;7.10;3.35;;;25.20;95.50;;;;;;4953904;28;20027;-79
2023/08/04 07:07:27;;;;;;;6.65;2.88;;;25.20;95.40;;;;;;4953646;28;20068;-80
2023/08/04 07:09:53;;;;;;;7.07;2.83;;;25.10;95.10;;;;;;4954020;28;20038;-79
2023/08/04 07:12:19;;;;;;;5.18;2.50;;;25.00;94.60;;;;;;4953690;28;20024;-79
2023/08/04 07:14:45;;;;;;;6.78;2.65;;;25.00;94.70;;;;;;4953485;28;20039;-80
2023/08/04 07:17:10;;;;;;;8.13;2.92;;;25.00;94.40;;;;;;4953805;28;20502;-77
2023/08/04 07:19:36;;;;;;;7.22;2.40;;;24.90;94.20;;;;;;4953594;28;20038;-80
2023/08/04 07:22:02;;;;;;;11.82;2.47;;;24.90;94.00;;;;;;4953781;28;20029;-79
2023/08/04 07:24:29;;;;;;;8.00;2.67;;;24.90;93.80;;;;;;4953380;28;20035;-79
2023/08/04 07:26:56;;;;;;;6.82;2.55;;;24.80;94.00;;;;;;4953477;28;20073;-78
2023/08/04 07:29:22;;;;;;;6.85;2.60;;;24.70;94.00;;;;;;4953594;28;20395;-78
2023/08/04 07:31:47;;;;;;;6.10;2.40;;;24.70;94.00;;;;;;4953069;28;20023;-74
2023/08/04 07:34:13;;;;;;;5.35;2.42;;;24.60;93.90;;;;;;4951587;28;20039;-78
2023/08/04 07:36:39;;;;;;;5.63;2.50;;;24.50;94.00;;;;;;4952171;28;20025;-75
2023/08/04 07:39:05;;;;;;;10.52;2.80;;;24.40;94.10;;;;;;4952379;28;20100;-74
2023/08/04 07:41:30;;;;;;;5.63;2.40;;;24.30;94.20;;;;;;4952535;28;20114;-75
2023/08/04 07:43:56;;;;;;;6.03;2.97;;;24.30;94.30;;;;;;4952665;28;20070;-76
2023/08/04 07:46:27;;;;;;;7.25;2.63;;;24.30;94.50;;;;;;4952854;28;20055;-76
2023/08/04 07:48:53;;;;;;;6.63;2.60;;;24.30;94.40;;;;;;4953283;28;20034;-76
2023/08/04 07:51:19;;;;;;;8.75;2.30;;;24.20;94.30;;;;;;4953487;28;20027;-76
2023/08/04 07:53:46;;;;;;;5.32;2.65;;;24.20;94.20;;;;;;4953317;28;20479;-78
2023/08/04 07:56:12;;;;;;;6.68;3.08;;;24.20;94.30;;;;;;4953251;28;20035;-75
2023/08/04 07:58:38;;;;;;;7.65;2.88;;;24.10;94.40;;;;;;4953413;28;20426;-76
2023/08/04 08:01:04;;;;;;;5.57;2.35;;;24.00;94.70;;;;;;4951976;28;20027;-76
2023/08/04 08:03:33;;;;;;;8.32;3.42;;;24.00;94.80;;;;;;4953279;28;20023;-75
2023/08/04 08:06:00;;;;;;;17.20;3.92;;;24.00;95.00;;;;;;4953209;28;20035;-79
2023/08/04 08:08:27;;;;;;;9.93;3.20;;;24.00;94.90;;;;;;4953036;28;20028;-74
2023/08/04 08:10:53;;;;;;;10.95;3.28;;;23.90;94.80;;;;;;4953323;28;20039;-77
2023/08/04 08:13:19;;;;;;;9.02;2.72;;;23.80;95.00;;;;;;4953138;29;20407;-77
2023/08/04 08:15:45;;;;;;;7.25;2.25;;;23.70;95.20;;;;;;4953146;28;20027;-75
2023/08/04 08:18:11;;;;;;;5.30;2.00;;;23.50;95.10;;;;;;4953103;28;20038;-79
2023/08/04 08:20:41;;;;;;;7.43;1.90;;;23.30;95.30;;;;;;4952710;28;20035;-73
2023/08/04 08:23:07;;;;;;;4.38;2.30;;;23.10;95.60;;;;;;4952962;28;20124;-73
2023/08/04 08:25:35;;;;;;;4.55;2.00;;;23.00;95.80;;;;;;4952948;29;20055;-76
2023/08/04 08:28:01;;;;;;;5.50;2.55;;;23.00;96.10;;;;;;4952793;28;20027;-77
2023/08/04 08:30:27;;;;;;;3.08;1.42;;;22.90;96.20;;;;;;4952895;29;20027;-76
2023/08/04 08:32:53;;;;;;;4.30;1.45;;;22.90;96.10;;;;;;4952395;28;20581;-75
2023/08/04 08:35:19;;;;;;;7.35;1.80;;;22.80;96.00;;;;;;4952270;29;20093;-79
2023/08/04 08:37:45;;;;;;;3.72;1.45;;;22.80;96.20;;;;;;4952670;28;20372;-77
2023/08/04 08:40:11;;;;;;;7.82;1.95;;;22.70;96.20;;;;;;4952558;28;20035;-77
2023/08/04 08:42:37;;;;;;;6.47;1.40;;;22.60;96.30;;;;;;4952107;28;20105;-73
2023/08/04 08:45:04;;;;;;;1.80;1.17;;;22.60;96.40;;;;;;4952361;28;20039;-74
2023/08/04 08:47:37;;;;;;;4.07;1.73;;;22.50;96.30;;;;;;4951925;28;20068;-75
2023/08/04 08:50:06;;;;;;;4.28;2.08;;;22.50;96.20;;;;;;4952217;28;20031;-76
2023/08/04 08:52:36;;;;;;;4.00;1.45;;;22.40;96.30;;;;;;4952386;28;20027;-74
2023/08/04 08:55:04;;;;;;;2.53;1.33;;;22.40;96.50;;;;;;4952404;28;20046;-74
2023/08/04 08:57:30;;;;;;;1.98;1.02;;;22.40;96.60;;;;;;4952199;28;20089;-79
2023/08/04 09:00:00;;;;;;;6.38;0.90;;;22.40;96.40;;;;;;4952429;28;20031;-79
2023/08/04 09:02:26;;;;;;;2.35;0.90;;;22.40;96.20;;;;;;4952459;28;20031;-78
2023/08/04 09:04:52;;;;;;;2.38;0.65;;;22.40;96.10;;;;;;4952608;28;20082;-77
2023/08/04 09:07:18;;;;;;;2.00;0.50;;;22.40;95.90;;;;;;4952289;28;20039;-79
2023/08/04 09:09:45;;;;;;;3.83;0.60;;;22.50;95.40;;;;;;4952298;28;20031;-78
2023/08/04 09:12:12;;;;;;;2.22;0.70;;;22.50;95.30;;;;;;4951860;28;20467;-77
2023/08/04 09:14:55;;;;;;;2.47;0.52;;;22.40;95.30;;;;;;4952069;28;20046;-78
2023/08/04 09:17:33;;;;;;;2.05;0.70;;;22.40;95.60;;;;;;4952280;28;20030;-78
2023/08/04 09:20:01;;;;;;;5.25;0.50;;;22.40;95.50;;;;;;4952314;28;20031;-79
2023/08/04 09:22:27;;;;;;;1.73;0.40;;;22.40;95.30;;;;;;4952194;28;20034;-79
2023/08/04 09:24:59;;;;;;;4.30;0.50;;;22.40;95.30;;;;;;4952383;28;20058;-78
2023/08/04 09:27:33;;;;;;;0.52;0.30;;;22.40;95.50;;;;;;4952398;28;20023;-79
2023/08/04 09:30:01;;;;;;;1.10;0.32;;;22.40;95.80;;;;;;4952316;28;20019;-79
2023/08/04 09:32:28;;;;;;;1.38;0.38;;;22.40;95.60;;;;;;4952131;28;20019;-79
2023/08/04 09:35:05;;;;;;;2.83;0.43;;;22.40;95.50;;;;;;4952021;28;20487;-79
2023/08/04 09:37:33;;;;;;;0.65;0.30;;;22.40;95.00;;;;;;4951853;28;20035;-79
2023/08/04 09:40:00;;;;;;;2.05;0.40;;;22.40;94.90;;;;;;4951884;28;20035;-79
2023/08/04 09:42:26;;;;;;;0.57;0.30;;;22.30;95.10;;;;;;4951800;28;20388;-79
2023/08/04 09:44:53;;;;;;;0.73;0.50;;;22.30;95.10;;;;;;4951942;28;20114;-79
2023/08/04 09:47:27;;;;;;;2.90;0.50;;;22.30;95.00;;;;;;4951674;28;20031;-79
2023/08/04 09:49:53;;;;;;;2.40;0.35;;;22.20;95.20;;;;;;4951679;28;20051;-77
2023/08/04 09:52:24;;;;;;;1.75;0.45;;;22.20;95.20;;;;;;4951884;28;20055;-78
2023/08/04 09:54:52;;;;;;;1.17;0.40;;;22.20;95.10;;;;;;4951594;29;20039;-77
2023/08/04 09:57:18;;;;;;;1.80;0.32;;;22.20;95.10;;;;;;4951775;28;20076;-79
2023/08/04 09:59:46;;;;;;;1.00;0.40;;;22.20;95.00;;;;;;4951739;28;20059;-78
2023/08/04 10:02:13;;;;;;;1.60;0.35;;;22.20;95.00;;;;;;4951951;28;20102;-78
2023/08/04 10:04:40;;;;;;;2.45;0.45;;;22.20;95.20;;;;;;4951446;28;20027;-79
2023/08/04 10:07:09;;;;;;;0.80;0.40;;;22.20;95.20;;;;;;4951738;29;20031;-79
2023/08/04 10:09:35;;;;;;;4.38;0.40;;;22.20;95.10;;;;;;4951775;28;20035;-79
2023/08/04 10:12:02;;;;;;;1.92;0.57;;;22.10;95.10;;;;;;4951616;28;20027;-79
2023/08/04 10:14:27;;;;;;;1.02;0.40;;;22.10;95.30;;;;;;4951323;28;20035;-79
2023/08/04 10:16:54;;;;;;;3.75;0.57;;;22.10;95.50;;;;;;4951577;28;20034;-77
2023/08/04 10:19:23;;;;;;;1.17;0.70;;;22.10;95.70;;;;;;4951544;28;20484;-80
2023/08/04 10:21:50;;;;;;;0.93;0.40;;;22.10;95.70;;;;;;4951450;28;20019;-79
2023/08/04 10:24:20;;;;;;;1.58;0.50;;;22.10;95.50;;;;;;4954238;28;20031;-79
2023/08/04 10:26:49;;;;;;;7.05;0.85;;;22.10;95.60;;;;;;4954771;28;20036;-79
2023/08/04 10:29:16;;;;;;;3.42;0.60;;;22.00;95.40;;;;;;4954845;28;20116;-78
2023/08/04 10:31:51;;;;;;;1.52;0.60;;;22.00;95.60;;;;;;4954348;28;20046;-80
2023/08/04 10:34:26;;;;;;;3.90;0.60;;;22.00;95.80;;;;;;4954443;28;20043;-80
2023/08/04 10:37:04;;;;;;;3.05;0.40;;;22.00;95.80;;;;;;4954931;28;20367;-80
2023/08/04 10:39:55;;;;;;;4.30;0.40;;;22.10;95.50;;;;;;4954672;28;20479;-79
2023/08/04 10:42:23;;;;;;;1.23;0.30;;;22.10;95.20;;;;;;4954220;28;20055;-80
2023/08/04 10:45:09;;;;;;;1.23;0.40;;;22.10;95.10;;;;;;4954391;28;20033;-80
2023/08/04 10:47:43;;;;;;;2.35;0.50;;;22.10;95.10;;;;;;4954522;28;20027;-79
2023/08/04 10:50:09;;;;;;;1.02;0.30;;;22.10;94.80;;;;;;4954443;28;20395;-78
2023/08/04 10:52:36;;;;;;;1.70;0.50;;;22.10;94.70;;;;;;4954413;29;20023;-80
2023/08/04 10:55:04;;;;;;;2.72;0.60;;;22.10;94.60;;;;;;4954574;28;20031;-78
2023/08/04 10:57:33;;;;;;;1.90;0.68;;;22.00;94.70;;;;;;4954177;28;20057;-79
2023/08/04 11:00:05;;;;;;;2.85;0.50;;;22.00;94.70;;;;;;4954304;28;20027;-79
2023/08/04 11:02:32;;;;;;;0.93;0.50;;;21.90;94.70;;;;;;4954291;28;20379;-78
2023/08/04 11:04:58;;;;;;;3.78;0.50;;;21.80;95.00;;;;;;4954150;28;20023;-78
2023/08/04 11:07:24;;;;;;;6.13;0.70;;;21.80;95.10;;;;;;4953986;28;20027;-79
2023/08/04 11:09:52;;;;;;;2.03;0.68;;;21.70;95.30;;;;;;4953906;28;20103;-79
2023/08/04 11:12:18;;;;;;;1.20;0.50;;;21.60;95.60;;;;;;4952452;28;20353;-80
2023/08/04 11:14:45;;;;;;;3.70;0.70;;;21.60;95.80;;;;;;4949830;28;20066;-80
2023/08/04 11:17:12;;;;;;;2.22;0.50;;;21.60;96.10;;;;;;4950839;28;20015;-79
2023/08/04 11:19:38;;;;;;;1.05;0.60;;;21.70;96.10;;;;;;4952350;28;20103;-78
2023/08/04 11:22:13;;;;;;;2.35;0.55;;;21.70;96.00;;;;;;4953703;28;20027;-78
2023/08/04 11:24:39;;;;;;;1.33;0.60;;;21.70;96.00;;;;;;4952538;28;20540;-79
2023/08/04 11:27:05;;;;;;;1.25;0.60;;;21.70;96.30;;;;;;4950580;28;20053;-76
2023/08/04 11:29:31;;;;;;;1.95;0.52;;;21.70;96.50;;;;;;4950472;28;20098;-78
2023/08/04 11:31:57;;;;;;;3.22;0.60;;;21.70;96.60;;;;;;4952717;28;20024;-77
2023/08/04 11:34:23;;;;;;;1.55;0.63;;;21.80;96.80;;;;;;4952851;28;20453;-79
2023/08/04 11:36:49;;;;;;;1.45;0.75;;;22.00;97.30;;;;;;4953601;28;20027;-79
2023/08/04 11:39:15;;;;;;;1.75;0.68;;;22.20;97.50;;;;;;4953124;28;20383;-79
2023/08/04 11:41:44;;;;;;;1.08;0.60;;;22.30;97.30;;;;;;4953348;28;20503;-78
2023/08/04 11:44:10;;;;;;;1.50;0.50;;;22.50;97.30;;;;;;4953369;28;20038;-78
2023/08/04 11:46:36;;;;;;;4.35;0.70;;;22.50;97.10;;;;;;4952925;28;20487;-76
2023/08/04 11:49:05;;;;;;;2.45;0.73;;;22.70;97.10;;;;;;4953245;28;20037;-76
2023/08/04 11:51:31;;;;;;;1.17;0.47;;;22.90;97.00;;;;;;4953244;28;20023;-77
2023/08/04 11:53:57;;;;;;;0.80;0.60;;;23.00;97.00;;;;;;4953039;28;20395;-77
2023/08/04 11:56:22;;;;;;;2.60;0.60;;;23.10;96.60;;;;;;4952893;28;20097;-72
2023/08/04 11:58:50;;;;;;;3.10;0.50;;;23.20;96.50;;;;;;4953169;28;20387;-76
2023/08/04 12:01:30;;;;;;;1.73;0.45;;;23.20;96.20;;;;;;4953076;28;20383;-77
2023/08/04 12:03:56;;;;;;;0.75;0.60;;;23.20;96.10;;;;;;4952715;28;20062;-77
2023/08/04 12:06:23;;;;;;;0.80;0.60;;;23.20;96.10;;;;;;4952470;28;20408;-76
2023/08/04 12:08:53;;;;;;;2.17;0.68;;;23.20;96.00;;;;;;4952286;28;20114;-73
2023/08/04 12:11:20;;;;;;;3.25;0.85;;;23.30;96.20;;;;;;4952825;28;20035;-73
2023/08/04 12:13:46;;;;;;;0.90;0.60;;;23.30;95.90;;;;;;4952562;28;20038;-76
2023/08/04 12:16:13;;;;;;;1.35;0.50;;;23.30;95.40;;;;;;4952607;28;20027;-72
2023/08/04 12:18:39;;;;;;;0.88;0.60;;;23.30;95.10;;;;;;4952194;28;20065;-75
2023/08/04 12:21:05;;;;;;;2.67;0.50;;;23.20;94.80;;;;;;4952222;28;20054;-75
2023/08/04 12:23:31;;;;;;;1.20;0.40;;;23.20;94.50;;;;;;4952438;28;20027;-74
2023/08/04 12:25:57;;;;;;;3.53;0.55;;;23.20;94.50;;;;;;4952150;28;20024;-74
2023/08/04 12:28:23;;;;;;;4.38;0.70;;;23.10;94.80;;;;;;4952321;28;20033;-73
2023/08/04 12:30:50;;;;;;;0.80;0.50;;;23.10;94.90;;;;;;4952440;28;20027;-72
2023/08/04 12:52:15;;;;;;;1.33;0.60;;;22.90;94.10;;;;;;5069628;28;20443;-72
2023/08/04 12:54:41;;;;;;;2.03;0.68;;;22.90;94.40;;;;;;5069816;28;20029;-71
2023/08/04 12:57:08;;;;;;;5.40;0.70;;;22.80;94.40;;;;;;5069861;28;20025;-71
2023/08/04 12:59:34;;;;;;;1.45;0.60;;;22.70;94.40;;;;;;5069391;28;20378;-72